Time;durP1;ratioP1;P1;durP2;ratioP2;P2;SDS_P1;SDS_P2;PMS_P1;PMS_P2;Temp;Humidity;BMP_temperature;BMP_pressure;BME280_temperature;BME280_humidity;BME280_pressure;Samples;Min_cycle;Max_cycle;Signal;HPM_P1;HPM_P2
2023/11/22 00:00:30;;;;;;;4.33;3.97;;;7.60;99.90;;;;;;5071028;28;20226;-58
2023/11/22 00:02:59;;;;;;;3.90;3.63;;;7.60;99.90;;;;;;5071377;28;20223;-58
2023/11/22 00:05:26;;;;;;;5.77;4.50;;;7.60;99.90;;;;;;5070726;28;20199;-58
2023/11/22 00:07:52;;;;;;;3.90;3.70;;;7.60;99.90;;;;;;5072238;28;20795;-60
2023/11/22 00:10:20;;;;;;;4.30;3.83;;;7.60;99.90;;;;;;5072042;28;20205;-58
2023/11/22 00:12:46;;;;;;;4.60;4.20;;;7.50;99.90;;;;;;5069480;28;20706;-61
2023/11/22 00:15:17;;;;;;;4.37;3.90;;;7.50;99.90;;;;;;5071979;28;20250;-60
2023/11/22 00:17:44;;;;;;;4.97;4.53;;;7.50;99.90;;;;;;5072135;28;20202;-60
2023/11/22 00:20:13;;;;;;;4.63;4.23;;;7.50;99.90;;;;;;5071810;28;20208;-60
2023/11/22 00:22:40;;;;;;;4.83;4.43;;;7.50;99.90;;;;;;5069446;28;20223;-58
2023/11/22 00:25:08;;;;;;;3.73;3.53;;;7.40;99.90;;;;;;5071608;28;20237;-60
2023/11/22 00:27:36;;;;;;;4.43;4.13;;;7.40;99.90;;;;;;5060010;28;20223;-58
2023/11/22 00:30:04;;;;;;;4.90;3.97;;;7.40;99.90;;;;;;5071416;28;20297;-58
2023/11/22 00:32:31;;;;;;;3.77;3.47;;;7.40;99.90;;;;;;5071289;28;20268;-57
2023/11/22 00:34:58;;;;;;;4.20;3.90;;;7.40;99.90;;;;;;5071669;28;20203;-57
2023/11/22 00:37:26;;;;;;;4.03;3.73;;;7.40;99.90;;;;;;5070251;28;20299;-60
2023/11/22 00:39:53;;;;;;;4.60;4.30;;;7.40;99.90;;;;;;5071516;28;20203;-60
2023/11/22 00:42:20;;;;;;;3.70;3.50;;;7.40;99.90;;;;;;5061837;28;20704;-60
2023/11/22 00:44:48;;;;;;;4.13;3.83;;;7.40;99.90;;;;;;5071429;28;20606;-57
2023/11/22 00:47:16;;;;;;;4.17;3.87;;;7.40;99.90;;;;;;5069152;28;20233;-60
2023/11/22 00:49:43;;;;;;;3.87;3.57;;;7.40;99.90;;;;;;5071147;28;20689;-58
2023/11/22 00:52:10;;;;;;;4.10;3.80;;;7.30;99.90;;;;;;5070349;28;20743;-60
2023/11/22 00:54:38;;;;;;;4.27;3.97;;;7.30;99.90;;;;;;5071183;28;20199;-60
2023/11/22 00:57:06;;;;;;;4.47;4.17;;;7.30;99.90;;;;;;5068167;28;20693;-58
2023/11/22 00:59:33;;;;;;;4.47;4.07;;;7.30;99.90;;;;;;5071049;28;20725;-58
2023/11/22 01:02:02;;;;;;;4.33;3.93;;;7.30;99.90;;;;;;5070998;28;20253;-60
2023/11/22 01:04:29;;;;;;;5.33;4.83;;;7.30;99.90;;;;;;5070144;28;20309;-58
2023/11/22 01:06:55;;;;;;;5.13;4.37;;;7.40;99.90;;;;;;5066449;28;20702;-60
2023/11/22 01:09:22;;;;;;;4.33;3.93;;;7.40;99.90;;;;;;5071070;28;20194;-60
2023/11/22 01:11:51;;;;;;;4.10;3.90;;;7.30;99.90;;;;;;5071186;28;20628;-60
2023/11/22 01:14:18;;;;;;;4.57;4.07;;;7.40;99.90;;;;;;5070220;28;20985;-60
2023/11/22 01:16:45;;;;;;;4.83;4.53;;;7.40;99.90;;;;;;5070207;28;20203;-60
2023/11/22 01:19:12;;;;;;;5.00;4.60;;;7.40;99.90;;;;;;5075046;28;20195;-57
2023/11/22 01:21:39;;;;;;;5.00;4.67;;;7.40;99.90;;;;;;5066390;28;20305;-60
2023/11/22 01:24:07;;;;;;;7.23;4.93;;;7.40;99.90;;;;;;5075087;28;20219;-59
2023/11/22 01:26:38;;;;;;;5.17;4.77;;;7.40;99.90;;;;;;5074787;28;20202;-57
2023/11/22 01:29:06;;;;;;;5.73;5.23;;;7.40;99.90;;;;;;5072850;28;20217;-60
2023/11/22 01:31:35;;;;;;;5.20;4.77;;;7.30;99.90;;;;;;5074902;28;20330;-58
2023/11/22 01:34:03;;;;;;;5.60;5.10;;;7.30;99.90;;;;;;5072455;28;20226;-57
2023/11/22 01:36:31;;;;;;;5.87;5.27;;;7.20;99.90;;;;;;5062731;28;20211;-60
2023/11/22 01:38:58;;;;;;;6.40;5.07;;;7.20;99.90;;;;;;5073714;28;20668;-58
2023/11/22 01:41:25;;;;;;;6.20;5.10;;;7.20;99.90;;;;;;5073653;28;20212;-57
2023/11/22 01:43:52;;;;;;;5.37;4.97;;;7.20;99.90;;;;;;5074928;28;20210;-58
2023/11/22 01:46:25;;;;;;;6.83;5.37;;;7.20;99.90;;;;;;5074669;28;20260;-57
2023/11/22 01:48:54;;;;;;;5.97;5.37;;;7.20;99.90;;;;;;5073453;28;20193;-58
2023/11/22 01:51:22;;;;;;;6.10;5.60;;;7.20;99.90;;;;;;5074019;28;20655;-58
2023/11/22 01:53:53;;;;;;;5.63;5.13;;;7.20;99.90;;;;;;5074767;28;20214;-58
2023/11/22 01:56:21;;;;;;;5.53;5.03;;;7.20;99.90;;;;;;5074566;28;20211;-58
2023/11/22 01:58:49;;;;;;;5.80;5.30;;;7.20;99.90;;;;;;5074829;28;20255;-58
2023/11/22 02:01:16;;;;;;;6.37;5.87;;;7.20;99.90;;;;;;5073808;28;20772;-58
2023/11/22 02:03:47;;;;;;;6.63;6.03;;;7.20;99.90;;;;;;5068295;28;20215;-58
2023/11/22 02:06:16;;;;;;;6.00;5.33;;;7.20;99.90;;;;;;5072980;28;20667;-58
2023/11/22 02:08:43;;;;;;;6.00;5.40;;;7.10;99.90;;;;;;5072898;28;20195;-58
2023/11/22 02:11:10;;;;;;;7.13;6.53;;;7.20;99.90;;;;;;5074372;28;20274;-58
2023/11/22 02:13:37;;;;;;;6.00;5.50;;;7.20;99.90;;;;;;5074456;28;20224;-58
2023/11/22 02:16:04;;;;;;;8.10;6.47;;;7.20;99.90;;;;;;5069029;28;20260;-58
2023/11/22 02:18:31;;;;;;;7.03;6.17;;;7.20;99.90;;;;;;5074445;28;20251;-58
2023/11/22 02:21:01;;;;;;;7.27;6.17;;;7.20;99.90;;;;;;5074456;28;20252;-58
2023/11/22 02:23:29;;;;;;;7.23;5.90;;;7.20;99.90;;;;;;5074193;28;20272;-58
2023/11/22 02:25:56;;;;;;;6.17;5.30;;;7.20;99.90;;;;;;5074270;28;20280;-58
2023/11/22 02:28:23;;;;;;;7.07;6.47;;;7.20;99.90;;;;;;5072665;28;20664;-58
2023/11/22 02:30:51;;;;;;;6.00;4.57;;;7.10;99.90;;;;;;5073356;28;20203;-58
2023/11/22 02:33:18;;;;;;;6.23;5.63;;;7.10;99.90;;;;;;5074068;28;20226;-58
2023/11/22 02:35:45;;;;;;;6.00;5.40;;;7.20;99.90;;;;;;5072962;28;20197;-57
2023/11/22 02:38:12;;;;;;;5.67;5.03;;;7.20;99.90;;;;;;5073009;28;20624;-60
2023/11/22 02:40:41;;;;;;;7.30;5.73;;;7.20;99.90;;;;;;5074262;28;20636;-60
2023/11/22 02:43:08;;;;;;;5.70;5.30;;;7.20;99.90;;;;;;5071797;28;20231;-58
2023/11/22 02:45:36;;;;;;;5.23;4.73;;;7.20;99.90;;;;;;5065185;28;20282;-58
2023/11/22 02:48:03;;;;;;;5.33;4.80;;;7.10;99.90;;;;;;5071641;28;20569;-57
2023/11/22 02:50:31;;;;;;;4.80;4.40;;;7.20;99.90;;;;;;5072047;28;20658;-58
2023/11/22 02:52:59;;;;;;;4.80;4.47;;;7.10;99.90;;;;;;5073550;28;20225;-58
2023/11/22 02:55:26;;;;;;;5.67;5.07;;;7.10;99.90;;;;;;5073439;28;20658;-57
2023/11/22 02:57:54;;;;;;;4.80;4.50;;;7.10;99.90;;;;;;5064711;28;20199;-58
2023/11/22 03:00:21;;;;;;;5.13;4.30;;;7.00;99.90;;;;;;5064167;28;20276;-58
2023/11/22 03:02:53;;;;;;;6.40;5.87;;;7.00;99.90;;;;;;5070990;28;20219;-58
2023/11/22 03:05:21;;;;;;;6.73;5.17;;;7.00;99.90;;;;;;5072341;28;20296;-59
2023/11/22 03:07:50;;;;;;;5.13;4.67;;;6.90;99.90;;;;;;5073401;28;20286;-58
2023/11/22 03:10:18;;;;;;;6.40;5.80;;;7.00;99.90;;;;;;5072764;28;20329;-58
2023/11/22 03:12:45;;;;;;;6.03;5.43;;;7.00;99.90;;;;;;5066688;28;20298;-58
2023/11/22 03:15:14;;;;;;;17.67;12.50;;;7.00;99.90;;;;;;5071446;28;20253;-58
2023/11/22 03:17:41;;;;;;;15.10;11.97;;;7.00;99.90;;;;;;5070323;28;20613;-57
2023/11/22 03:20:10;;;;;;;14.33;10.40;;;7.00;99.90;;;;;;5071901;28;20799;-58
2023/11/22 03:22:38;;;;;;;10.30;8.33;;;7.00;99.90;;;;;;5072896;28;20731;-58
2023/11/22 03:25:06;;;;;;;8.60;7.70;;;7.00;99.90;;;;;;5070841;28;20206;-58
2023/11/22 03:27:33;;;;;;;10.27;7.60;;;7.00;99.90;;;;;;5065477;28;20234;-58
2023/11/22 03:30:01;;;;;;;8.90;7.63;;;7.00;99.90;;;;;;5072927;28;20664;-57
2023/11/22 03:32:29;;;;;;;10.23;8.97;;;7.00;99.90;;;;;;5072923;28;20201;-58
2023/11/22 03:34:57;;;;;;;12.30;8.70;;;7.00;99.90;;;;;;5074493;28;20210;-58
2023/11/22 03:37:24;;;;;;;10.23;8.63;;;7.10;99.90;;;;;;5074984;28;20627;-58
2023/11/22 03:39:50;;;;;;;12.07;9.13;;;7.10;99.90;;;;;;5065605;28;20202;-58
2023/11/22 03:42:18;;;;;;;10.13;8.90;;;7.10;99.90;;;;;;5071499;28;20216;-58
2023/11/22 03:44:45;;;;;;;11.13;9.67;;;7.10;99.90;;;;;;5070235;28;20667;-58
2023/11/22 03:47:13;;;;;;;12.17;10.37;;;7.00;99.90;;;;;;5053981;28;20642;-60
2023/11/22 03:49:42;;;;;;;15.10;10.10;;;7.00;99.90;;;;;;5053614;28;20200;-58
2023/11/22 03:52:11;;;;;;;12.30;8.53;;;7.00;99.90;;;;;;5058072;28;20288;-58
2023/11/22 03:54:39;;;;;;;12.60;10.17;;;7.00;99.90;;;;;;5063327;28;20214;-58
2023/11/22 03:57:06;;;;;;;11.80;9.53;;;7.00;99.90;;;;;;5093377;22;20245;-61
2023/11/22 03:59:35;;;;;;;11.87;9.13;;;7.00;99.90;;;;;;5071758;28;20203;-61
2023/11/22 04:02:01;;;;;;;13.23;9.50;;;7.00;99.90;;;;;;5071548;28;20272;-61
2023/11/22 04:04:28;;;;;;;8.77;7.80;;;7.10;99.90;;;;;;5071526;28;20199;-61
2023/11/22 04:06:57;;;;;;;9.57;8.13;;;7.20;99.90;;;;;;5062811;28;20254;-61
2023/11/22 04:09:24;;;;;;;12.23;8.60;;;7.10;99.90;;;;;;5059987;28;20200;-61
2023/11/22 04:11:51;;;;;;;10.33;8.13;;;7.10;99.90;;;;;;5051645;28;20604;-61
2023/11/22 04:14:20;;;;;;;7.20;6.50;;;7.00;99.90;;;;;;5053957;28;20282;-61
2023/11/22 04:16:47;;;;;;;10.40;7.60;;;7.00;99.90;;;;;;5070857;28;20230;-61
2023/11/22 04:19:13;;;;;;;8.87;6.67;;;7.00;99.90;;;;;;5069248;28;20252;-61
2023/11/22 04:21:40;;;;;;;7.40;5.77;;;7.00;99.90;;;;;;5064525;28;20196;-61
2023/11/22 04:24:09;;;;;;;9.13;6.77;;;7.00;99.90;;;;;;5062201;28;20434;-61
2023/11/22 04:26:37;;;;;;;11.20;8.50;;;7.00;99.90;;;;;;5069690;28;20219;-61
2023/11/22 04:29:04;;;;;;;9.00;7.47;;;7.00;99.90;;;;;;5054196;28;20303;-61
2023/11/22 04:31:32;;;;;;;7.37;6.67;;;7.00;99.90;;;;;;5056764;28;20206;-61
2023/11/22 04:34:00;;;;;;;9.70;7.27;;;7.00;99.90;;;;;;5070512;28;20244;-61
2023/11/22 04:36:27;;;;;;;8.43;6.13;;;7.00;99.90;;;;;;5058718;28;20303;-61
2023/11/22 04:38:54;;;;;;;5.83;5.33;;;7.00;99.90;;;;;;5062883;28;20207;-61
2023/11/22 04:41:25;;;;;;;5.97;5.37;;;7.00;99.90;;;;;;5071045;28;20229;-61
2023/11/22 04:43:51;;;;;;;6.53;5.93;;;7.00;99.90;;;;;;5063964;28;20317;-61
2023/11/22 04:46:18;;;;;;;6.97;5.33;;;7.00;99.90;;;;;;5050552;28;20654;-61
2023/11/22 04:48:47;;;;;;;5.73;5.17;;;7.00;99.90;;;;;;5059260;28;20259;-61
2023/11/22 04:51:16;;;;;;;6.00;4.73;;;7.00;99.90;;;;;;5060841;28;21571;-61
2023/11/22 04:53:44;;;;;;;7.53;6.30;;;7.00;99.90;;;;;;5065067;28;20282;-61
2023/11/22 04:56:11;;;;;;;6.67;5.30;;;6.90;99.90;;;;;;5060643;28;20718;-61
2023/11/22 04:58:39;;;;;;;7.17;5.47;;;6.90;99.90;;;;;;5050832;28;20583;-61
2023/11/22 05:01:06;;;;;;;8.43;6.97;;;7.00;99.90;;;;;;5054620;28;20637;-61
2023/11/22 05:03:33;;;;;;;9.07;7.27;;;7.00;99.90;;;;;;5058127;28;20213;-61
2023/11/22 05:06:00;;;;;;;8.03;6.27;;;7.10;99.90;;;;;;5050510;28;20208;-61
2023/11/22 05:08:27;;;;;;;8.17;6.40;;;7.00;99.90;;;;;;5049829;28;20257;-61
2023/11/22 05:10:54;;;;;;;6.60;5.83;;;7.00;99.90;;;;;;5067436;28;20264;-61
2023/11/22 05:13:21;;;;;;;9.17;6.27;;;7.00;99.90;;;;;;5070821;28;20246;-61
2023/11/22 05:15:50;;;;;;;7.50;6.80;;;7.00;99.90;;;;;;5063238;28;20200;-61
2023/11/22 05:18:17;;;;;;;7.73;6.97;;;7.00;99.90;;;;;;5058776;28;20214;-61
2023/11/22 05:20:44;;;;;;;11.40;8.13;;;7.00;99.90;;;;;;5054956;28;20642;-61
2023/11/22 05:23:13;;;;;;;17.27;10.67;;;7.00;99.90;;;;;;5050599;28;20265;-61
2023/11/22 05:25:40;;;;;;;15.03;9.73;;;7.00;99.90;;;;;;5050176;28;20291;-61
2023/11/22 05:28:07;;;;;;;11.17;7.90;;;7.00;99.90;;;;;;5068532;28;20227;-61
2023/11/22 05:30:34;;;;;;;11.87;7.73;;;7.00;99.90;;;;;;5061868;28;20206;-61
2023/11/22 05:33:02;;;;;;;10.33;7.07;;;7.00;99.90;;;;;;5054060;28;20196;-61
2023/11/22 05:35:29;;;;;;;7.33;6.63;;;7.00;99.90;;;;;;5050139;28;20273;-61
2023/11/22 05:37:57;;;;;;;5.93;5.40;;;7.00;99.90;;;;;;5060901;28;20223;-61
2023/11/22 05:40:24;;;;;;;6.63;5.80;;;7.00;99.90;;;;;;5065576;28;20211;-61
2023/11/22 05:42:51;;;;;;;7.03;6.37;;;7.00;99.90;;;;;;5055516;28;20226;-61
2023/11/22 05:45:18;;;;;;;7.10;6.13;;;7.00;99.90;;;;;;5062499;28;20264;-61
2023/11/22 05:47:45;;;;;;;10.07;7.63;;;7.00;99.90;;;;;;5065776;28;20311;-61
2023/11/22 05:50:14;;;;;;;8.87;7.23;;;7.00;99.90;;;;;;5062315;28;20204;-61
2023/11/22 05:52:41;;;;;;;8.60;7.70;;;6.90;99.90;;;;;;5066310;28;20199;-61
2023/11/22 05:55:08;;;;;;;12.13;6.17;;;6.90;99.90;;;;;;5070234;28;20248;-61
2023/11/22 05:57:36;;;;;;;10.13;6.90;;;6.90;99.90;;;;;;5063712;28;20227;-61
2023/11/22 06:00:03;;;;;;;8.37;6.03;;;7.00;99.90;;;;;;5061519;28;20253;-61
2023/11/22 06:02:31;;;;;;;7.87;6.27;;;7.00;99.90;;;;;;5058982;28;20220;-61
2023/11/22 06:04:58;;;;;;;6.67;5.70;;;7.00;99.90;;;;;;5071825;28;20211;-60
2023/11/22 06:07:27;;;;;;;7.43;5.57;;;7.00;99.90;;;;;;5073148;28;20219;-61
2023/11/22 06:09:54;;;;;;;6.70;6.10;;;7.00;99.90;;;;;;5067093;28;20294;-60
2023/11/22 06:12:21;;;;;;;6.07;5.47;;;7.00;99.90;;;;;;5072566;28;20249;-61
2023/11/22 06:14:48;;;;;;;7.40;6.37;;;7.00;99.90;;;;;;5072674;28;20207;-60
2023/11/22 06:17:15;;;;;;;10.27;6.90;;;7.00;99.90;;;;;;5064296;28;20223;-61
2023/11/22 06:19:42;;;;;;;8.67;7.37;;;7.00;99.90;;;;;;5071138;28;20210;-60
2023/11/22 06:22:09;;;;;;;11.70;6.87;;;7.00;99.90;;;;;;5073343;28;20628;-60
2023/11/22 06:24:38;;;;;;;15.93;7.47;;;7.00;99.90;;;;;;5073716;28;20199;-60
2023/11/22 06:27:05;;;;;;;12.70;7.67;;;7.00;99.90;;;;;;5073023;28;20219;-60
2023/11/22 06:29:32;;;;;;;11.60;7.07;;;7.00;99.90;;;;;;5073589;28;20200;-61
2023/11/22 06:31:59;;;;;;;12.00;9.00;;;7.00;99.90;;;;;;5073164;28;20291;-60
2023/11/22 06:34:26;;;;;;;13.33;6.83;;;6.90;99.90;;;;;;5072915;28;20195;-60
2023/11/22 06:36:53;;;;;;;11.87;7.87;;;6.90;99.90;;;;;;5070629;28;20223;-61
2023/11/22 06:39:22;;;;;;;9.93;5.60;;;6.90;99.90;;;;;;5073158;28;20206;-60
2023/11/22 06:41:50;;;;;;;8.03;4.73;;;6.90;99.90;;;;;;5064951;28;20203;-60
2023/11/22 06:44:18;;;;;;;3.07;2.87;;;7.00;99.90;;;;;;5071707;28;20218;-60
2023/11/22 06:46:45;;;;;;;3.07;2.53;;;6.90;99.90;;;;;;5068852;28;20247;-61
2023/11/22 06:49:12;;;;;;;2.27;2.07;;;6.90;99.90;;;;;;5066644;28;20550;-60
2023/11/22 06:51:40;;;;;;;2.07;1.70;;;6.80;99.90;;;;;;5072916;28;20373;-60
2023/11/22 06:54:07;;;;;;;2.97;1.77;;;6.80;99.90;;;;;;5066422;28;20706;-60
2023/11/22 06:56:38;;;;;;;1.80;1.70;;;6.70;99.90;;;;;;5059895;28;20323;-60
2023/11/22 06:59:07;;;;;;;1.40;1.40;;;6.60;99.90;;;;;;5069578;28;20215;-60
2023/11/22 07:01:39;;;;;;;1.20;1.10;;;6.30;99.90;;;;;;5066168;28;20956;-60
2023/11/22 07:04:06;;;;;;;2.50;1.23;;;6.20;99.90;;;;;;5072517;28;20229;-60
2023/11/22 07:06:37;;;;;;;3.03;1.23;;;6.20;99.90;;;;;;5064764;28;20218;-60
2023/11/22 07:09:04;;;;;;;0.80;0.80;;;6.10;99.90;;;;;;5072049;28;20212;-60
2023/11/22 07:11:31;;;;;;;1.20;1.00;;;6.10;99.90;;;;;;5069734;28;20307;-60
2023/11/22 07:13:58;;;;;;;3.63;1.20;;;6.10;99.90;;;;;;5064320;28;20201;-60
2023/11/22 07:16:27;;;;;;;0.97;0.97;;;6.00;99.90;;;;;;5060322;28;20296;-60
2023/11/22 07:18:54;;;;;;;1.27;1.03;;;6.00;99.90;;;;;;5067772;28;20202;-60
2023/11/22 07:21:21;;;;;;;0.53;0.53;;;6.10;99.90;;;;;;5062027;28;20630;-60
2023/11/22 07:23:49;;;;;;;1.40;0.60;;;5.90;99.90;;;;;;5064620;28;20221;-60
2023/11/22 07:26:16;;;;;;;0.40;0.40;;;5.70;99.90;;;;;;5065098;28;20779;-60
2023/11/22 07:28:43;;;;;;;0.50;0.50;;;5.80;99.90;;;;;;5059887;28;20434;-60
2023/11/22 07:31:11;;;;;;;0.20;0.20;;;5.90;99.90;;;;;;5061884;28;20204;-62
2023/11/22 07:33:39;;;;;;;0.43;0.43;;;5.70;99.90;;;;;;5063017;28;20218;-60
2023/11/22 07:36:07;;;;;;;0.30;0.30;;;5.60;99.90;;;;;;5063946;28;20647;-61
2023/11/22 07:38:34;;;;;;;0.20;0.20;;;5.60;99.90;;;;;;5059052;28;20283;-61
2023/11/22 07:41:01;;;;;;;0.27;0.27;;;5.50;99.90;;;;;;5069282;28;20666;-61
2023/11/22 07:43:28;;;;;;;0.43;0.33;;;5.40;99.90;;;;;;5067749;28;20196;-62
2023/11/22 07:45:55;;;;;;;0.70;0.70;;;5.40;99.90;;;;;;5063915;28;20199;-62
2023/11/22 07:48:22;;;;;;;1.70;0.50;;;5.30;99.90;;;;;;5061568;28;20208;-62
2023/11/22 07:50:51;;;;;;;1.20;1.10;;;5.40;99.90;;;;;;5071770;28;20716;-62
2023/11/22 07:53:20;;;;;;;0.63;0.63;;;5.30;99.90;;;;;;5057082;28;20289;-62
2023/11/22 07:55:46;;;;;;;0.57;0.57;;;5.30;99.90;;;;;;5071100;28;20289;-62
2023/11/22 07:58:14;;;;;;;1.23;1.13;;;5.10;99.90;;;;;;5068920;28;20211;-64
2023/11/22 08:00:42;;;;;;;1.33;1.13;;;5.10;99.90;;;;;;5057748;28;20216;-63
2023/11/22 08:03:09;;;;;;;1.47;1.37;;;5.10;99.90;;;;;;5057155;28;20199;-64
2023/11/22 08:05:39;;;;;;;2.80;2.60;;;5.00;99.90;;;;;;5071394;28;20249;-63
2023/11/22 08:08:08;;;;;;;2.70;2.50;;;5.00;99.90;;;;;;5071358;28;20224;-62
2023/11/22 08:10:35;;;;;;;3.67;2.27;;;5.00;99.90;;;;;;5067329;28;20253;-60
2023/11/22 08:13:03;;;;;;;2.97;2.77;;;4.90;99.90;;;;;;5051701;28;20231;-62
2023/11/22 08:15:31;;;;;;;3.17;2.97;;;4.90;99.90;;;;;;5058902;28;20591;-62
2023/11/22 08:18:00;;;;;;;2.60;2.40;;;5.00;99.90;;;;;;5061834;28;20246;-62
2023/11/22 08:20:27;;;;;;;3.23;3.00;;;4.90;99.90;;;;;;5060908;28;20675;-62
2023/11/22 08:22:54;;;;;;;4.30;3.47;;;5.00;99.90;;;;;;5063894;28;20204;-62
2023/11/22 08:25:23;;;;;;;3.40;3.10;;;5.00;99.90;;;;;;5069695;28;20202;-59
2023/11/22 08:27:50;;;;;;;4.00;3.30;;;5.00;99.90;;;;;;5071062;28;20318;-62
2023/11/22 08:30:17;;;;;;;4.70;3.53;;;5.10;99.90;;;;;;5069784;28;20625;-62
2023/11/22 08:32:48;;;;;;;5.00;2.97;;;5.10;99.90;;;;;;5062224;28;20738;-62
2023/11/22 08:35:15;;;;;;;3.10;2.90;;;5.10;99.90;;;;;;5070827;28;20230;-61
2023/11/22 08:37:42;;;;;;;3.60;3.30;;;5.20;99.90;;;;;;5070831;28;20228;-62
2023/11/22 08:40:14;;;;;;;3.80;3.40;;;5.20;99.90;;;;;;5070818;28;20207;-61
2023/11/22 08:42:42;;;;;;;3.73;3.27;;;5.30;99.90;;;;;;5070088;28;20203;-61
2023/11/22 08:45:11;;;;;;;6.37;3.50;;;5.20;99.90;;;;;;5069625;28;20563;-62
2023/11/22 08:47:39;;;;;;;3.43;3.13;;;5.30;99.90;;;;;;5059414;28;20692;-61
2023/11/22 08:50:07;;;;;;;4.50;3.57;;;5.20;99.90;;;;;;5055118;28;20262;-60
2023/11/22 08:52:36;;;;;;;3.73;2.87;;;5.20;99.90;;;;;;5055146;28;20233;-61
2023/11/22 08:55:04;;;;;;;3.60;3.30;;;5.20;99.90;;;;;;5069857;28;20222;-62
2023/11/22 08:57:31;;;;;;;4.00;3.67;;;5.20;99.90;;;;;;5065808;28;20250;-62
2023/11/22 09:00:05;;;;;;;4.27;3.97;;;5.30;99.90;;;;;;5070779;28;20205;-57
2023/11/22 09:02:32;;;;;;;4.50;3.20;;;5.30;99.90;;;;;;5062287;28;20659;-60
2023/11/22 09:04:59;;;;;;;3.40;3.10;;;5.30;99.90;;;;;;5055133;28;20211;-57
2023/11/22 09:07:28;;;;;;;3.73;3.43;;;5.30;99.90;;;;;;5054998;28;20227;-57
2023/11/22 09:09:54;;;;;;;5.77;3.10;;;5.30;99.90;;;;;;5071053;28;20203;-57
2023/11/22 09:12:21;;;;;;;3.23;2.93;;;5.30;99.90;;;;;;5069992;28;20199;-57
2023/11/22 09:14:48;;;;;;;2.77;2.57;;;5.40;99.90;;;;;;5070947;28;20272;-57
2023/11/22 09:17:17;;;;;;;3.60;3.30;;;5.40;99.90;;;;;;5067634;28;20219;-57
2023/11/22 09:19:44;;;;;;;3.50;3.20;;;5.30;99.90;;;;;;5064070;28;20222;-56
2023/11/22 09:22:11;;;;;;;3.50;3.20;;;5.30;99.90;;;;;;5070673;28;20268;-62
2023/11/22 09:24:38;;;;;;;4.63;3.83;;;5.40;99.90;;;;;;5070414;28;20280;-60
2023/11/22 09:27:06;;;;;;;4.77;3.87;;;5.40;99.90;;;;;;5067318;28;20222;-56
2023/11/22 09:29:33;;;;;;;3.43;3.13;;;5.40;99.90;;;;;;5066144;28;20194;-56
2023/11/22 09:32:02;;;;;;;4.93;3.50;;;5.40;99.90;;;;;;5070756;28;20245;-57
2023/11/22 09:34:30;;;;;;;4.03;3.67;;;5.40;99.90;;;;;;5063319;28;20231;-57
2023/11/22 09:36:58;;;;;;;4.37;3.63;;;5.40;99.90;;;;;;5055168;28;20310;-57
2023/11/22 09:39:25;;;;;;;4.57;3.70;;;5.30;99.90;;;;;;5053817;28;20204;-57
2023/11/22 09:41:54;;;;;;;6.90;4.40;;;5.40;99.90;;;;;;5062764;28;20204;-57
2023/11/22 09:44:22;;;;;;;8.63;6.10;;;5.40;99.90;;;;;;5074740;28;20290;-57
2023/11/22 09:46:50;;;;;;;6.00;4.43;;;5.40;99.90;;;;;;5070874;28;20260;-57
2023/11/22 09:49:25;;;;;;;5.47;4.97;;;5.40;99.90;;;;;;5058817;28;20632;-57
2023/11/22 09:51:57;;;;;;;6.73;4.37;;;5.50;99.90;;;;;;5074270;28;20194;-57
2023/11/22 09:54:29;;;;;;;5.63;3.83;;;5.50;99.90;;;;;;5057219;28;20219;-57
2023/11/22 09:57:01;;;;;;;5.90;3.97;;;5.50;99.90;;;;;;5053942;28;20231;-57
2023/11/22 09:59:29;;;;;;;4.90;3.50;;;5.70;99.90;;;;;;5067534;28;20576;-57
2023/11/22 10:01:59;;;;;;;4.37;3.77;;;5.60;99.90;;;;;;5074204;28;20202;-57
2023/11/22 10:04:28;;;;;;;7.07;4.63;;;5.70;99.90;;;;;;5065140;28;20273;-57
2023/11/22 10:06:59;;;;;;;3.83;3.47;;;5.60;99.90;;;;;;5068760;28;20224;-57
2023/11/22 10:09:29;;;;;;;2.77;2.40;;;5.50;99.90;;;;;;5074046;28;20257;-57
2023/11/22 10:12:02;;;;;;;4.93;2.50;;;5.40;99.90;;;;;;5074149;28;20208;-57
2023/11/22 10:14:30;;;;;;;3.23;2.93;;;5.50;99.90;;;;;;5073913;28;20704;-57
2023/11/22 10:17:01;;;;;;;2.83;2.63;;;5.50;99.90;;;;;;5073628;28;20251;-56
2023/11/22 10:19:28;;;;;;;2.40;2.17;;;5.60;99.90;;;;;;5072960;28;20675;-57
2023/11/22 10:22:08;;;;;;;3.43;3.23;;;5.70;99.90;;;;;;5065688;28;20201;-56
2023/11/22 10:24:36;;;;;;;3.80;3.50;;;5.70;99.90;;;;;;5057641;28;20250;-57
2023/11/22 10:27:03;;;;;;;3.70;3.30;;;5.60;99.90;;;;;;5073391;28;20703;-56
2023/11/22 10:29:30;;;;;;;3.60;3.20;;;5.60;99.90;;;;;;5073714;28;20713;-57
2023/11/22 10:31:58;;;;;;;2.93;2.63;;;5.60;99.90;;;;;;5073537;28;20203;-57
2023/11/22 10:34:26;;;;;;;2.83;2.63;;;5.70;99.90;;;;;;5073546;28;20322;-57
2023/11/22 10:36:54;;;;;;;3.33;3.00;;;5.60;99.90;;;;;;5066068;28;20223;-56
2023/11/22 10:39:23;;;;;;;2.73;2.30;;;5.60;99.90;;;;;;5072111;22;20235;-58
2023/11/22 10:41:51;;;;;;;2.87;2.57;;;5.70;99.90;;;;;;5033751;28;20621;-58
2023/11/22 10:44:21;;;;;;;4.53;3.30;;;5.80;99.90;;;;;;5033957;28;20307;-57
2023/11/22 10:46:50;;;;;;;3.20;3.00;;;5.80;99.90;;;;;;5033430;28;20246;-58
2023/11/22 10:49:18;;;;;;;3.87;2.50;;;5.70;99.90;;;;;;5030779;28;20221;-58
2023/11/22 10:51:47;;;;;;;3.53;2.90;;;5.70;99.90;;;;;;5031633;28;20244;-58
2023/11/22 10:54:14;;;;;;;2.73;2.53;;;5.70;99.90;;;;;;5033508;28;20699;-57
2023/11/22 10:56:46;;;;;;;2.70;2.50;;;5.60;99.90;;;;;;5032896;28;20199;-58
2023/11/22 10:59:15;;;;;;;2.50;2.30;;;5.60;99.90;;;;;;5033143;28;20224;-58
2023/11/22 11:01:46;;;;;;;4.17;2.63;;;5.50;99.90;;;;;;5039733;28;20270;-57
2023/11/22 11:04:21;;;;;;;1.70;1.60;;;5.50;99.90;;;;;;5033876;28;20278;-57
2023/11/22 11:06:55;;;;;;;2.10;2.00;;;5.50;99.90;;;;;;5028695;28;20258;-58
2023/11/22 11:09:26;;;;;;;3.17;2.87;;;5.50;99.90;;;;;;5033126;28;20230;-57
2023/11/22 11:11:57;;;;;;;2.43;2.23;;;5.70;99.90;;;;;;5033546;28;20201;-57
2023/11/22 11:14:24;;;;;;;1.70;1.60;;;5.80;99.90;;;;;;5033598;28;20231;-57
2023/11/22 11:16:54;;;;;;;2.00;1.80;;;5.80;99.90;;;;;;5032152;28;20204;-58
2023/11/22 11:19:23;;;;;;;2.83;2.60;;;5.90;99.90;;;;;;5033320;28;20228;-58
2023/11/22 11:21:51;;;;;;;2.37;2.27;;;5.80;99.90;;;;;;5033761;28;20200;-57
2023/11/22 11:24:18;;;;;;;2.33;2.10;;;5.70;99.90;;;;;;5031165;28;20200;-58
2023/11/22 11:26:51;;;;;;;2.40;2.20;;;5.70;99.90;;;;;;5032312;28;20281;-58
2023/11/22 11:29:32;;;;;;;2.20;2.00;;;5.70;99.90;;;;;;5030977;28;20697;-57
2023/11/22 11:32:01;;;;;;;2.13;2.03;;;5.70;99.90;;;;;;5033090;28;20650;-58
2023/11/22 11:34:29;;;;;;;4.43;2.60;;;5.60;99.90;;;;;;5033004;28;20255;-57
2023/11/22 11:36:57;;;;;;;2.17;2.07;;;5.60;99.90;;;;;;5032655;28;20274;-58
2023/11/22 11:39:30;;;;;;;2.07;1.93;;;5.60;99.90;;;;;;5029342;28;20327;-58
2023/11/22 11:42:09;;;;;;;2.77;2.57;;;5.60;99.90;;;;;;5031986;28;20243;-57
2023/11/22 11:44:39;;;;;;;2.43;2.23;;;5.70;99.90;;;;;;5029501;28;20298;-58
2023/11/22 11:47:14;;;;;;;2.00;1.87;;;5.70;99.90;;;;;;5032424;28;20209;-57
2023/11/22 11:49:41;;;;;;;2.67;2.47;;;5.70;99.90;;;;;;5031072;28;20738;-57
2023/11/22 11:52:08;;;;;;;4.30;2.17;;;5.60;99.90;;;;;;5027192;28;20205;-57
2023/11/22 11:54:35;;;;;;;2.37;2.17;;;5.70;99.90;;;;;;5031480;28;20306;-57
2023/11/22 11:57:02;;;;;;;2.20;2.10;;;5.40;99.90;;;;;;5028261;28;20310;-57
2023/11/22 11:59:31;;;;;;;2.27;2.07;;;5.80;99.90;;;;;;5032427;28;20279;-57
2023/11/22 12:02:01;;;;;;;2.47;2.27;;;5.80;99.90;;;;;;5032082;28;20263;-57
2023/11/22 12:04:28;;;;;;;2.47;2.23;;;5.70;99.90;;;;;;5031849;28;20207;-58
2023/11/22 12:06:55;;;;;;;2.70;2.50;;;5.70;99.90;;;;;;5036803;28;20212;-57
2023/11/22 12:09:26;;;;;;;2.83;1.73;;;5.80;99.90;;;;;;5035829;28;20260;-58
2023/11/22 12:11:53;;;;;;;1.67;1.57;;;5.80;99.90;;;;;;5032441;28;20200;-57
2023/11/22 12:14:21;;;;;;;2.27;2.07;;;5.70;99.90;;;;;;5029811;28;20220;-57
2023/11/22 12:16:51;;;;;;;2.27;1.97;;;5.70;99.90;;;;;;5028846;28;20209;-58
2023/11/22 12:19:26;;;;;;;2.90;2.70;;;5.80;99.90;;;;;;5031931;28;20727;-58
2023/11/22 12:21:54;;;;;;;1.83;1.73;;;5.80;99.90;;;;;;5025268;28;20197;-57
2023/11/22 12:24:21;;;;;;;3.47;2.10;;;5.90;99.90;;;;;;5031955;28;20206;-58
2023/11/22 12:26:49;;;;;;;2.80;2.00;;;5.80;99.90;;;;;;5027890;28;20197;-58
2023/11/22 12:29:18;;;;;;;1.97;1.87;;;5.80;99.90;;;;;;5031718;28;20224;-58
2023/11/22 12:31:50;;;;;;;2.13;2.03;;;5.80;99.90;;;;;;5032386;28;20259;-58
2023/11/22 12:34:18;;;;;;;2.60;2.37;;;5.80;99.90;;;;;;5030928;28;20811;-58
2023/11/22 12:36:48;;;;;;;2.00;1.60;;;5.90;99.90;;;;;;5031508;28;20736;-58
2023/11/22 12:39:20;;;;;;;2.37;2.27;;;5.80;99.90;;;;;;5030812;28;20234;-58
2023/11/22 12:41:50;;;;;;;2.17;2.00;;;5.80;99.90;;;;;;5031607;28;20204;-57
2023/11/22 12:44:17;;;;;;;2.43;2.20;;;5.80;99.90;;;;;;5031730;28;20624;-58
2023/11/22 12:46:49;;;;;;;3.53;3.23;;;5.70;99.90;;;;;;5031546;28;20269;-57
2023/11/22 12:49:18;;;;;;;2.33;2.17;;;5.70;99.90;;;;;;5028121;28;20232;-58
2023/11/22 12:51:50;;;;;;;2.40;2.23;;;5.60;99.90;;;;;;5028580;28;20291;-58
2023/11/22 12:54:19;;;;;;;2.13;2.03;;;5.50;99.90;;;;;;5031582;28;20629;-58
2023/11/22 12:56:46;;;;;;;3.60;2.27;;;5.50;99.90;;;;;;5029703;28;20263;-57
2023/11/22 12:59:13;;;;;;;2.40;2.20;;;5.60;99.90;;;;;;5028578;28;20270;-58